Map

Track Data

SID SEASON NUMBER BASIN SUBBASIN NAME ISO_TIME NATURE LAT LON WMO_WIND WMO_PRES WMO_AGENCY TRACK_TYPE DIST2LAND LANDFALL IFLAG USA_AGENCY USA_ATCF_ID USA_LAT USA_LON USA_RECORD USA_STATUS USA_WIND USA_PRES USA_SSHS USA_R34_NE USA_R34_SE USA_R34_SW USA_R34_NW USA_R50_NE USA_R50_SE USA_R50_SW USA_R50_NW USA_R64_NE USA_R64_SE USA_R64_SW USA_R64_NW USA_POCI USA_ROCI USA_RMW USA_EYE TOKYO_LAT TOKYO_LON TOKYO_GRADE TOKYO_WIND TOKYO_PRES TOKYO_R50_DIR TOKYO_R50_LONG TOKYO_R50_SHORT TOKYO_R30_DIR TOKYO_R30_LONG TOKYO_R30_SHORT TOKYO_LAND CMA_LAT CMA_LON CMA_CAT CMA_WIND CMA_PRES HKO_LAT HKO_LON HKO_CAT HKO_WIND HKO_PRES NEWDELHI_LAT NEWDELHI_LON NEWDELHI_GRADE NEWDELHI_WIND NEWDELHI_PRES NEWDELHI_CI NEWDELHI_DP NEWDELHI_POCI REUNION_LAT REUNION_LON REUNION_TYPE REUNION_WIND REUNION_PRES REUNION_TNUM REUNION_CI REUNION_RMW REUNION_R34_NE REUNION_R34_SE REUNION_R34_SW REUNION_R34_NW REUNION_R50_NE REUNION_R50_SE REUNION_R50_SW REUNION_R50_NW REUNION_R64_NE REUNION_R64_SE REUNION_R64_SW REUNION_R64_NW BOM_LAT BOM_LON BOM_TYPE BOM_WIND BOM_PRES BOM_TNUM BOM_CI BOM_RMW BOM_R34_NE BOM_R34_SE BOM_R34_SW BOM_R34_NW BOM_R50_NE BOM_R50_SE BOM_R50_SW BOM_R50_NW BOM_R64_NE BOM_R64_SE BOM_R64_SW BOM_R64_NW BOM_ROCI BOM_POCI BOM_EYE BOM_POS_METHOD BOM_PRES_METHOD NADI_LAT NADI_LON NADI_CAT NADI_WIND NADI_PRES WELLINGTON_LAT WELLINGTON_LON WELLINGTON_WIND WELLINGTON_PRES DS824_LAT DS824_LON DS824_STAGE DS824_WIND DS824_PRES TD9636_LAT TD9636_LON TD9636_STAGE TD9636_WIND TD9636_PRES TD9635_LAT TD9635_LON TD9635_WIND TD9635_PRES TD9635_ROCI NEUMANN_LAT NEUMANN_LON NEUMANN_CLASS NEUMANN_WIND NEUMANN_PRES MLC_LAT MLC_LON MLC_CLASS MLC_WIND MLC_PRES USA_GUST BOM_GUST BOM_GUST_PER REUNION_GUST REUNION_GUST_PER USA_SEAHGT USA_SEARAD_NE USA_SEARAD_SE USA_SEARAD_SW USA_SEARAD_NW STORM_SPEED STORM_DIR
1966055S14149 1966 15 SP EA CONNIE 1966-02-23 23:00:00 NR -13.8000 149.000 1000 bom main 370 353 ______O_______ -1 -13.8000 149.000 1000 64 95
1966055S14149 1966 15 SP EA CONNIE 1966-02-24 00:00:00 TS -13.8856 150.088 main 358 358 O_____P__OO_O_ jtwc_sh SH271966 -14.0000 151.300 -1 -13.7997 149.160 1000 -13.8000 149.200 TC 30 1000 -14.0000 151.300 1 -13.8000 149.200 TC 30 1000 23 96
1966055S14149 1966 15 SP EA CONNIE 1966-02-24 03:00:00 TS -13.9620 150.536 main 369 369 P_____P__PP_P_ SH271966 -14.1476 151.552 -1 -13.7984 149.641 1000 -13.7989 149.688 TC 30 1000 -14.1611 151.533 1 -13.8002 149.700 TC 30 1000 8 101
1966055S14149 1966 15 SP EA CONNIE 1966-02-24 06:00:00 TS -14.0388 150.936 main 373 373 O_____P__PP_O_ jtwc_sh SH271966 -14.3000 151.800 -1 -13.7976 150.133 1000 -13.7979 150.180 TC 30 1000 -14.3176 151.772 1 -13.8000 150.200 TC 30 1000 8 102
1966055S14149 1966 15 SP EA CONNIE 1966-02-24 09:00:00 TS -14.1294 151.356 main 395 395 P_____P__PP_P_ SH271966 -14.4574 152.043 -1 -13.7983 150.645 1000 -13.7980 150.683 TC 30 1000 -14.4654 152.026 1 -13.7999 150.700 TC 30 1000 8 102
1966055S14149 1966 15 SP EA CONNIE 1966-02-24 11:00:00 TS -14.1779 151.614 1000 bom main 413 413 P_____O__PP_P_ SH271966 -14.5557 152.211 -1 -13.8000 151.000 1000 -13.7990 151.026 TC 30 1000 -14.5568 152.206 1 -13.7999 151.033 TC 30 1000 8 101
1966055S14149 1966 15 SP EA CONNIE 1966-02-24 12:00:00 TS -14.2002 151.747 main 416 416 O_____P__OO_O_ jtwc_sh SH271966 -14.6000 152.300 -1 -13.8013 151.183 1000 -13.8000 151.200 TC 30 1000 -14.6000 152.300 1 -13.8000 151.200 TC 30 1000 8 99
1966055S14149 1966 15 SP EA CONNIE 1966-02-24 15:00:00 TS -14.2568 152.156 main 445 445 P_____P__PP_P_ SH271966 -14.7075 152.585 -1 -13.8094 151.741 1000 -13.8057 151.733 TC 30 1000 -14.7184 152.599 1 -13.7924 151.693 TC 30 1000 8 98
1966055S14149 1966 15 SP EA CONNIE 1966-02-24 18:00:00 TS -14.3118 152.578 main 462 462 O_____P__PP_O_ jtwc_sh SH271966 -14.8000 152.900 -1 -13.8282 152.290 1000 -13.8202 152.260 TC 30 1000 -14.8224 152.920 1 -13.8000 152.200 TC 30 1000 8 98
1966055S14149 1966 15 SP EA CONNIE 1966-02-24 21:00:00 TS -14.3773 153.013 main 493 493 P_____P__PP_P_ SH271966 -14.9000 153.243 -1 -13.8638 152.799 1000 -13.8496 152.758 TC 30 1000 -14.9152 153.256 1 -13.8351 152.780 TC 30 1000 8 99
1966055S14149 1966 15 SP EA CONNIE 1966-02-24 23:00:00 TS -14.4269 153.291 1000 bom main 510 510 P_____O__PP_P_ SH271966 -14.9667 153.481 -1 -13.9000 153.100 1000 -13.8804 153.060 TC 30 1000 -14.9724 153.485 1 -13.8751 153.143 TC 30 1000 8 101
1966055S14149 1966 15 SP EA CONNIE 1966-02-25 00:00:00 TS -14.4540 153.422 main 525 525 O_____P__OO_O_ jtwc_sh SH271966 -15.0000 153.600 -1 -13.9243 153.233 999 -13.9000 153.200 TC 30 1000 -15.0000 153.600 1 -13.9000 153.300 TC 30 1000 7 104
1966055S14149 1966 15 SP EA CONNIE 1966-02-25 03:00:00 TS -14.5470 153.777 main 551 551 P_____P__PP_P_ SH271966 -15.1074 153.950 -1 -14.0144 153.582 996 -13.9820 153.566 TC 33 997 -15.0783 153.975 1 -13.9923 153.638 TC 35 997 7 106
1966055S14149 1966 15 SP EA CONNIE 1966-02-25 06:00:00 TS -14.6426 154.100 main 580 580 O_____P__PP_O_ jtwc_sh SH271966 -15.2000 154.300 -1 -14.1208 153.875 994 -14.0844 153.875 TC 37 995 -15.1503 154.353 1 -14.1000 153.900 TC 40 995 7 107
1966055S14149 1966 15 SP EA CONNIE 1966-02-25 09:00:00 TS -14.7434 154.423 main 609 609 P_____P__PP_P_ SH271966 -15.3025 154.672 -1 -14.2309 154.135 991 -14.1946 154.147 TC 41 992 -15.2221 154.703 1 -14.2075 154.207 TC 42 992 6 106
1966055S14149 1966 15 SP EA CONNIE 1966-02-25 11:00:00 TS -14.7920 154.622 990 bom main 632 632 P_____O__PP_P_ SH271966 -15.3202 154.900 -1 -14.3000 154.300 990 -14.2662 154.317 TC 43 990 -15.2730 154.909 1 -14.2724 154.406 TC 44 990 6 102
1966055S14149 1966 15 SP EA CONNIE 1966-02-25 12:00:00 TS -14.8043 154.716 main 639 639 O_____P__OO_O_ jtwc_sh SH271966 -15.3000 155.000 -1 -14.3261 154.394 990 -14.3000 154.400 TC 45 990 -15.3000 155.000 1 -14.3000 154.500 TC 45 990 5 88
1966055S14149 1966 15 SP EA CONNIE 1966-02-25 15:00:00 TS -14.7832 154.958 main 662 662 P_____P__PP_P_ SH271966 -15.0949 155.238 -1 -14.3979 154.666 990 -14.3650 154.653 TC 45 990 -15.3965 155.199 1 -14.3499 154.758 TC 45 990 4 80
1966055S14149 1966 15 SP EA CONNIE 1966-02-25 18:00:00 TS -14.7321 155.160 main 670 670 O_____P__PP_O_ jtwc_sh SH271966 -14.8000 155.400 -1 -14.4669 154.921 990 -14.4259 154.893 TC 45 990 -15.4995 155.345 1 -14.4000 155.000 TC 45 990 4 73
1966055S14149 1966 15 SP EA CONNIE 1966-02-25 21:00:00 TS -14.6735 155.334 main 678 678 P_____P__PP_P_ SH271966 -14.4524 155.500 -1 -14.5421 155.156 990 -14.4988 155.137 TC 45 990 -15.6028 155.468 1 -14.4924 155.243 TC 45 990 3 77
1966055S14149 1966 15 SP EA CONNIE 1966-02-25 23:00:00 TS -14.6688 155.449 990 bom main 686 686 P_____O__PP_P_ SH271966 -14.3091 155.561 -1 -14.6000 155.300 990 4 -14.5621 155.309 TC 45 990 -15.6687 155.553 1 -14.5640 155.411 TC 45 990 3 95
1966055S14149 1966 15 SP EA CONNIE 1966-02-26 00:00:00 TS -14.6883 155.510 main 694 694 O_____P__OO_O_ jtwc_sh SH271966 -14.3000 155.600 -1 -14.6297 155.358 990 -14.6000 155.400 TC 45 990 -15.7000 155.600 1 -14.6000 155.500 TC 45 990 5 121
1966055S14149 1966 15 SP EA CONNIE 1966-02-26 02:00:00 TS -14.7838 155.650 990 bom main 715 709 P_____O__PP_P_ SH271966 -14.4585 155.717 -1 -14.7000 155.500 990 -14.6800 155.583 TC 45 990 -15.7555 155.701 1 -14.6503 155.681 TC 45 990 5 128
1966055S14149 1966 15 SP EA CONNIE 1966-02-26 03:00:00 TS -14.8527 155.730 main 724 717 P_____P__PP_P_ SH271966 -14.5950 155.785 -1 -14.7404 155.603 990 -14.7263 155.679 TC 45 990 -15.7819 155.753 1 -14.6774 155.778 TC 45 990 7 134
1966055S14149 1966 15 SP EA CONNIE 1966-02-26 06:00:00 TS -15.1095 156.004 990 bom main 722 722 O_____O__OP_O_ jtwc_sh SH271966 -15.1000 156.000 -1 -14.9000 156.000 990 -14.9000 156.000 TC 45 990 -15.8570 155.925 1 -14.8000 156.100 TC 45 990 8 135
1966055S14149 1966 15 SP EA CONNIE 1966-02-26 09:00:00 TS -15.4083 156.298 main 733 733 P_____P__PP_P_ SH271966 -15.6024 156.170 -1 -15.1327 156.421 990 -15.1411 156.391 TC 45 990 -15.9287 156.135 1 -15.0426 156.500 TC 45 990 8 135
1966055S14149 1966 15 SP EA CONNIE 1966-02-26 11:00:00 TS -15.5997 156.511 990 bom main 741 736 P_____O__PP_P_ SH271966 -15.8930 156.310 -1 -15.3000 156.700 990 -15.3160 156.666 TC 45 990 -15.9761 156.304 1 -15.2203 156.773 TC 45 990 8 131
1966055S14149 1966 15 SP EA CONNIE 1966-02-26 12:00:00 TS -15.6780 156.622 main 746 736 O_____P__OO_O_ jtwc_sh SH271966 -16.0000 156.400 -1 -15.3678 156.832 990 -15.4000 156.800 TC 45 990 -16.0000 156.400 2 -15.3000 156.900 TC 45 990 7 115
1966055S14149 1966 15 SP EA CONNIE 1966-02-26 15:00:00 TS -15.8063 156.979 main 737 728 P_____P__PP_P_ SH271966 -16.1026 156.770 -1 -15.5463 157.202 990 -15.5940 157.165 TC 45 990 -16.0348 156.759 2 -15.4574 157.208 TC 45 990 7 107
1966055S14149 1966 15 SP EA CONNIE 1966-02-26 18:00:00 TS -15.8904 157.351 main 730 723 O_____P__PP_O_ jtwc_sh SH271966 -16.1000 157.200 -1 -15.7066 157.535 990 -15.7600 157.502 TC 45 990 -16.0756 157.171 2 -15.6000 157.500 TC 45 990 7 106
1966055S14149 1966 15 SP EA CONNIE 1966-02-26 21:00:00 TS -16.0071 157.721 main 730 725 P_____P__PP_P_ SH271966 -16.1550 157.615 -1 -15.8733 157.828 990 -15.9210 157.812 TC 45 990 -16.1535 157.597 2 -15.7850 157.857 TC 45 990 7 111
1966055S14149 1966 15 SP EA CONNIE 1966-02-26 23:00:00 TS -16.1124 157.954 990 bom main 721 721 P_____O__PP_P_ SH271966 -16.2355 157.878 -1 -16.0000 158.000 990 -16.0369 158.007 TC 45 990 -16.2416 157.870 2 -15.9250 158.092 TC 45 990 7 117
1966055S14149 1966 15 SP EA CONNIE 1966-02-27 00:00:00 TS -16.1785 158.063 main 725 722 O_____P__OO_O_ jtwc_sh SH271966 -16.3000 158.000 -1 -16.0708 158.078 990 -16.1000 158.100 TC 45 990 -16.3000 158.000 2 -16.0000 158.200 TC 45 990 8 131
1966055S14149 1966 15 SP EA CONNIE 1966-02-27 03:00:00 TS -16.4412 158.352 990 bom main 726 697 P_____O__PP_P_ SH271966 -16.6199 158.315 -1 -16.3000 158.300 990 -16.3079 158.372 TC 45 990 -16.5570 158.345 2 -16.2424 158.465 TC 45 990 8 136
1966055S14149 1966 15 SP EA CONNIE 1966-02-27 06:00:00 TS -16.7434 158.623 main 697 651 O_____P__PP_O_ jtwc_sh SH271966 -17.0000 158.600 -1 -16.5386 158.553 990 -16.5397 158.623 TC 45 990 -16.8823 158.659 2 -16.5000 158.700 TC 45 990 8 138
1966055S14149 1966 15 SP EA CONNIE 1966-02-27 09:00:00 TS -17.0314 158.901 main 651 621 P_____P__PP_P_ SH271966 -17.3075 158.915 -1 -16.8029 158.821 990 -16.8017 158.863 TC 45 990 -17.2414 158.945 2 -16.7275 158.950 TC 45 990 8 138
1966055S14149 1966 15 SP EA CONNIE 1966-02-27 11:00:00 TS -17.2306 159.080 990 bom main 621 606 P_____O__PP_P_ SH271966 -17.5026 159.111 -1 -17.0000 159.000 990 -16.9961 159.021 TC 45 990 -17.4827 159.118 2 -16.8995 159.117 TC 45 990 8 140
1966055S14149 1966 15 SP EA CONNIE 1966-02-27 12:00:00 TS -17.3344 159.164 main 606 570 O_____P__OO_O_ jtwc_sh SH271966 -17.6000 159.200 -1 -17.1066 159.084 990 -17.1000 159.100 TC 45 990 -17.6000 159.200 1 -17.0000 159.200 TC 45 990 8 145
1966055S14149 1966 15 SP EA CONNIE 1966-02-27 15:00:00 TS -17.6645 159.395 main 564 528 P_____P__PP_P_ SH271966 -17.8999 159.415 -1 -17.4566 159.333 991 -17.4389 159.346 TC 43 991 -17.9068 159.413 1 -17.3850 159.450 TC 45 991 8 148
1966055S14149 1966 15 SP EA CONNIE 1966-02-27 18:00:00 TS -18.0097 159.612 main 528 494 O_____P__PP_O_ jtwc_sh SH271966 -18.2000 159.600 -1 -17.8386 159.580 992 -17.8123 159.593 TC 42 992 -18.2070 159.601 1 -17.8000 159.700 TC 45 992 8 149
1966055S14149 1966 15 SP EA CONNIE 1966-02-27 21:00:00 TS -18.3489 159.830 main 494 460 P_____P__PP_P_ SH271966 -18.4999 159.785 -1 -18.2355 159.830 993 -18.2046 159.843 TC 41 993 -18.5037 159.788 1 -18.1500 159.950 TC 42 993 8 148
1966055S14149 1966 15 SP EA CONNIE 1966-02-27 23:00:00 TS -18.5750 159.983 994 bom main 460 446 P_____O__PP_P_ SH271966 -18.7000 159.922 -1 -18.5000 160.000 994 -18.4688 160.013 TC 40 993 -18.7011 159.925 1 -18.3802 160.117 TC 40 993 8 147
1966055S14149 1966 15 SP MM CONNIE 1966-02-28 00:00:00 TS -18.6881 160.065 main 446 413 O_____P__OO_O_ jtwc_sh SH271966 -18.8000 160.000 -1 -18.6287 160.088 994 -18.6000 160.100 TC 40 994 -18.8000 160.000 1 -18.5000 160.200 TC 40 994 9 144
1966055S14149 1966 15 SP MM CONNIE 1966-02-28 03:00:00 TS -19.0339 160.336 main 413 369 P_____P__PP_P_ SH271966 -19.1000 160.285 -1 -19.0162 160.359 994 -18.9788 160.365 TC 38 994 -19.1083 160.279 1 -18.8999 160.443 TC 40 994 9 142
1966055S14149 1966 15 SP MM CONNIE 1966-02-28 06:00:00 TS -19.3785 160.626 main 369 330 O_____P__PP_O_ jtwc_sh SH271966 -19.4000 160.600 -1 -19.3988 160.635 995 -19.3571 160.637 TC 37 995 -19.4152 160.585 1 -19.3000 160.700 TC 40 995 9 141
1966055S14149 1966 15 SP MM CONNIE 1966-02-28 09:00:00 TS -19.7181 160.924 main 330 306 P_____P__PP_P_ SH271966 -19.7150 160.908 -1 -19.7671 160.914 995 -19.7319 160.916 TC 36 995 -19.7145 160.898 1 -19.6650 161.000 TC 37 995 9 140
1966055S14149 1966 15 SP MM CONNIE 1966-02-28 11:00:00 TS -19.9332 161.120 996 bom main 306 294 P_____O__PP_P_ SH271966 -19.9114 161.106 -1 -20.0000 161.100 996 -19.9782 161.105 TC 35 995 -19.9067 161.102 1 -19.8917 161.203 TC 35 995 8 139
1966055S14149 1966 15 SP MM CONNIE 1966-02-28 12:00:00 TS -20.0344 161.215 main 294 260 O_____P__OO_O_ jtwc_sh SH271966 -20.0000 161.200 -1 -20.1063 161.190 996 -20.1000 161.200 TC 35 996 -20.0000 161.200 1 -20.0000 161.300 TC 35 996 7 138
1966055S14149 1966 15 SP MM CONNIE 1966-02-28 15:00:00 TS -20.3015 161.474 main 260 240 P_____P__PP_P_ SH271966 -20.1999 161.458 -1 -20.4071 161.457 996 -20.4592 161.488 TC -20.2353 161.433 1 -20.3074 161.550 TC 35 996 7 138
1966055S14149 1966 15 SP MM CONNIE 1966-02-28 18:00:00 TS -20.5612 161.727 main 241 215 O_____P__PP_O_ jtwc_sh SH271966 -20.4000 161.700 -1 -20.6956 161.727 996 -20.8100 161.781 TC -20.4616 161.657 1 -20.6000 161.800 TC 35 996 7 139
1966055S14149 1966 15 SP MM CONNIE 1966-02-28 21:00:00 TS -20.8472 161.989 main 215 202 P_____P__PP_P_ SH271966 -20.6699 161.928 -1 -20.9906 162.006 996 -21.1534 162.077 TC -20.7071 161.902 1 -20.8925 162.093 TC 35 996 8 140
1966055S14149 1966 15 SP MM CONNIE 1966-02-28 23:00:00 TS -21.0558 162.178 996 bom main 207 198 P_____O__PP_P_ SH271966 -20.8832 162.100 -1 -21.2000 162.200 996 -21.3788 162.276 TC -20.8954 162.093 1 -21.0943 162.297 TC 35 996 8 140
1966055S14149 1966 15 SP MM CONNIE 1966-03-01 00:00:00 TS -21.1678 162.280 main 203 194 O_____P__PO_O_ jtwc_sh SH271966 -21.0000 162.200 -1 -21.3162 162.303 996 -21.4906 162.377 TC -21.0000 162.200 1 -21.2000 162.400 TC 35 996 9 139
1966055S14149 1966 15 SP MM CONNIE 1966-03-01 03:00:00 TS -21.5283 162.621 main 197 190 P_____P__PP_P_ SH271966 -21.3774 162.563 -1 -21.6817 162.623 996 -21.8228 162.679 TC -21.3752 162.604 1 -21.5349 162.693 TC 35 996 10 138
1966055S14149 1966 15 SP MM CONNIE 1966-03-01 06:00:00 TS -21.9187 163.000 main 190 184 O_____P__PP_O_ jtwc_sh SH271966 -21.8000 163.000 -1 -22.0631 162.953 997 -22.1510 162.984 TC -21.7982 163.062 1 -21.9000 163.000 TC 35 997 11 137
1966055S14149 1966 15 SP MM CONNIE 1966-03-01 09:00:00 TS -22.3222 163.421 main 184 174 P_____P__PP_P_ SH271966 -22.2502 163.515 -1 -22.4478 163.284 997 -22.4764 163.291 TC -22.2471 163.539 1 -22.3000 163.350 TC 35 997 11 136
1966055S14149 1966 15 SP MM CONNIE 1966-03-01 11:00:00 TS -22.5949 163.707 998 bom main 182 175 P_____O__PP_P_ SH271966 -22.5532 163.851 -1 -22.7000 163.500 998 -22.6923 163.497 TC -22.5499 163.850 1 -22.5698 163.586 TC 35 997 11 136
1966055S14149 1966 15 SP MM CONNIE 1966-03-01 12:00:00 TS -22.7283 163.849 main 184 181 O_____P__OO_O_ jtwc_sh SH271966 -22.7000 164.000 -1 -22.8235 163.606 998 -22.8000 163.600 TC 35 998 -22.7000 164.000 1 -22.7000 163.700 TC 35 998 10 140
1966055S14149 1966 15 SP MM CONNIE 1966-03-01 15:00:00 TS -23.1012 164.169 main 202 202 P_____P___P_P_ SH271966 -23.0996 164.308 -1 -23.1841 163.914 998 TC -23.0654 164.305 1 -23.0574 164.008 TC 35 998 9 142
1966055S14149 1966 15 SP MM CONNIE 1966-03-01 18:00:00 TS -23.4716 164.476 main 223 223 O_____P___P_O_ jtwc_sh SH271966 -23.5000 164.600 -1 -23.5330 164.213 998 TC -23.4406 164.602 1 -23.4000 164.300 TC 35 998 9 142
1966055S14149 1966 15 SP MM CONNIE 1966-03-01 21:00:00 TS -23.8388 164.802 main 231 231 P_____P___P_P_ SH271966 -23.9043 164.962 -1 -23.8745 164.506 998 TC -23.8706 164.973 1 -23.6583 164.461 TC 35 998 11 139
1966055S14149 1966 15 SP MM CONNIE 1966-03-01 23:00:00 TS -24.1377 165.119 998 bom main 241 241 P_____O___P_P_ SH271966 -24.2183 165.292 -1 -24.1000 164.700 998 TC -24.2098 165.302 1 -23.9136 164.694 TC 35 998 14 134
1966055S14149 1966 15 SP MM CONNIE 1966-03-02 00:00:00 TS -24.3250 165.350 main 245 245 O_________O_O_ jtwc_sh SH271966 -24.4000 165.500 -1 TC -24.4000 165.500 1 -24.1000 164.900 TC 35 998 20 131
1966055S14149 1966 15 SP MM CONNIE 1966-03-02 03:00:00 TS -25.0363 166.239 main 295 295 P_________P_P_ SH271966 -25.0401 166.311 -1 TC -25.0725 166.292 1 -24.9926 166.041 TC 37 24 131
1966055S14149 1966 15 SP MM CONNIE 1966-03-02 06:00:00 TS -25.8601 167.313 main 393 393 O_________P_O_ jtwc_sh SH271966 -25.8000 167.300 -1 TC -25.8405 167.253 1 -26.0000 167.400 TC 40 25 131
1966055S14149 1966 15 SP MM CONNIE 1966-03-02 09:00:00 TS -26.6759 168.356 main 503 503 P_________P_P_ SH271966 -26.6349 168.335 -1 TC -26.6628 168.313 1 -26.7709 168.441 TC 37 25 131
1966055S14149 1966 15 SP MM CONNIE 1966-03-02 12:00:00 TS -27.5000 169.400 main 622 622 O_________O_O_ jtwc_sh SH271966 -27.5000 169.400 -1 -27.5000 169.400 1 -27.5000 169.400 TC 35 24 132
1966055S14149 1966 15 SP MM CONNIE 1966-03-02 15:00:00 TS -28.3024 170.393 main 722 614 P_________P_P_ SH271966 -28.3064 170.402 -1 -28.3051 170.375 1 -28.2916 170.394 TC 32 24 132
1966055S14149 1966 15 SP MM CONNIE 1966-03-02 18:00:00 TS -29.1041 171.392 main 612 513 O_________P_O_ jtwc_sh SH271966 -29.1000 171.400 -1 -29.1165 171.367 1 -29.1000 171.400 TC 30 24 132
1966055S14149 1966 15 SP MM CONNIE 1966-03-02 21:00:00 TS -29.9095 172.411 main 513 425 P_________P_P_ SH271966 -29.9061 172.415 -1 -29.9199 172.401 1 -29.9061 172.415 TC 30 24 131
1966055S14149 1966 15 SP MM CONNIE 1966-03-03 00:00:00 TS -30.7000 173.500 main 426 376 O_________O_O_ jtwc_sh SH271966 -30.7000 173.500 -1 -30.7000 173.500 1 -30.7000 173.500 TC 30 25 128
1966055S14149 1966 15 SP MM CONNIE 1966-03-03 03:00:00 TS -31.4705 174.718 main 370 363 P_________P_P_ SH271966 -31.4719 174.714 -1 -31.4664 174.731 1 -31.4719 174.714 TC 30 26 125
1966055S14149 1966 15 SP MM CONNIE 1966-03-03 06:00:00 TS -32.1998 176.006 main 372 368 O_________P_O_ jtwc_sh SH271966 -32.2000 176.000 -1 -32.1993 176.026 1 -32.2000 176.000 TC 30 26 123
1966055S14149 1966 15 SP MM CONNIE 1966-03-03 09:00:00 TS -32.8821 177.322 main 384 384 P_________P_P_ SH271966 -32.8795 177.316 -1 -32.8821 177.334 1 -32.8872 177.323 TC 30 25 121
1966055S14149 1966 15 SP MM CONNIE 1966-03-03 12:00:00 TS -33.5000 178.600 main 438 417 O_________O_O_ jtwc_sh SH271966 -33.5000 178.600 -1 -33.5000 178.600 1 -33.5000 178.600 TC 30 24 120
1966055S14149 1966 15 SP MM CONNIE 1966-03-03 15:00:00 TS -34.0615 179.773 main 412 399 P_________P_P_ SH271966 -34.0861 179.789 -1 -34.0456 179.782 1 -34.0281 179.732 TC 30 22 119
1966055S14149 1966 15 SP MM CONNIE 1966-03-03 18:00:00 TS -34.5581 180.873 main 402 402 O_________P_O_ jtwc_sh SH271966 -34.6000 -179.100 -1 -34.5325 -179.109 1 -34.5000 -179.200 TC 30 20 118
1966055S14149 1966 15 SP MM CONNIE 1966-03-03 21:00:00 TS -34.9968 181.941 main 421 421 P_________P_P_ SH271966 -35.0268 -178.039 -1 -34.9785 -178.045 1 -34.9550 -178.113 TC 30 19 116
1966055S14149 1966 15 SP MM CONNIE 1966-03-04 00:00:00 TS -35.4000 183.000 main 468 O_________O_O_ jtwc_sh SH271966 -35.4000 -177.000 -1 -35.4000 -177.000 1 -35.4000 -177.000 TC 30 19 115

Digital Typhoon Data and Search

About IBTrACS Database

This database is a web-friendly format of International Best Track Archive for Climate Stewardship (IBTrACS), a global best track data archive curated by NOAA dating back to 1842.

Updated: 2021-12-06